YQQ weather

Comox Airport
Comox, British Columbia, Canada

Public forecast

Using degrees Celsius for public forecast. Weather courtesy of forecast.io.

Current aviation weather report (METAR) for Comox Airport

Retrieved 2019/10/19 08:35 UTC (0 seconds ago):

CYQQ 190835Z 29005KT 3SM RA BR FEW008 BKN015 OVC033 08/07 A2966 RMK SF2SC6SC1 CIG VRB 11-19 VIS HIER NE SLP046

Aviation forecast (TAF) for Comox Airport

Retrieved 2019/10/19 06:42 UTC (2 hours ago):

TAF TAF CYQQ 190539Z 1906/2006 VRB03KT P6SM SCT050 BKN120 TEMPO 1906/1909 P6SM -SHRA BKN050 FM190900 14005KT P6SM SCT015 BKN030 OVC050 TEMPO 1909/1919 5SM -SHRA BR BKN015 OVC030 FM191900 35008KT P6SM SCT030 BKN060 TEMPO 1919/2006 P6SM -SHRA BKN030 BKN060 BECMG 2002/2004 18005KT RMK NXT FCST BY 191200Z